バンギ の空港の天気 - METARとTAF

バンギ・ムポコ国際空港 ( FEFF / BGF ) - 中央アフリカ バンギ
飛行場実況気象(Metar)
観測時間01/21 18:00 WAT (01/21 17:00 UTC)
風向・風速南 2m/s
視程3000m
天気現象煙 煙霧
なし
気温31℃
湿度52%
気圧1007hPa
METARFEFF 211700Z 17004KT 3000 HZFU NSC 31/20 Q1007 TEMPO 1500
過去の天気等 Google飛行場航空写真 Wunderground天気予報

過去48時間のMETAR

飛行場予報(TAF)
発表時間: 1/21 18:00 WAT (1/21 17:00 UTC)
予報対象時間: 21日19時 WAT ~ 23日1時 WAT
風向・風速南 2m/s
視程3,000m
天気現象煙霧煙
なし
21日22時 WAT から
風向・風速静穏
視程10km以上
なし
22日3時 WAT ~ 22日5時 WAT に徐々に
視程3,000m
天気現象もや
22日5時 WAT ~ 22日7時 WAT に一時的に
視程800m
天気現象
全天の8割程度の雲 雲底高度 90m
22日10時 WAT から
風向・風速北東 3m/s
視程10km以上
なし
TAF FEFF 211700Z 2118/2224 18004KT 3000 HZFU NSC
FM212100 00000KT CAVOK
BECMG 2202/2204 3000 BR
TEMPO 2204/2206 0800 FG BKN003
FM220900 04005KT CAVOK